createdAt,value
2022-11-17T00:01:23.173Z,97373.75
2022-11-17T00:03:50.613Z,97390.63
2022-11-17T00:06:17.475Z,97393.31
2022-11-17T00:08:43.764Z,97384.25
2022-11-17T00:11:10.225Z,97397.03
2022-11-17T00:13:37.006Z,97396.38
2022-11-17T00:16:03.567Z,97394.75
2022-11-17T00:18:31.143Z,97422.97
2022-11-17T00:20:57.480Z,97427.09
2022-11-17T00:23:23.822Z,97430.78
2022-11-17T00:25:50.163Z,97440.50
2022-11-17T00:28:16.554Z,97424.59
2022-11-17T00:30:44.039Z,97441.50
2022-11-17T00:33:10.442Z,97455.31
2022-11-17T00:35:38.025Z,97460.88
2022-11-17T00:38:04.431Z,97447.25
2022-11-17T00:40:30.815Z,97455.09
2022-11-17T00:42:57.116Z,97473.19
2022-11-17T00:45:23.418Z,97475.06
2022-11-17T00:47:49.720Z,97467.84
2022-11-17T00:50:16.134Z,97469.09
2022-11-17T00:52:43.774Z,97478.13
2022-11-17T00:55:10.103Z,97479.97
2022-11-17T00:57:36.455Z,97491.09
2022-11-17T01:00:03.354Z,97498.72
2022-11-17T01:02:29.635Z,97497.47
2022-11-17T01:04:55.957Z,97501.00
2022-11-17T01:07:22.359Z,97507.16
2022-11-17T01:09:50.095Z,97517.03
2022-11-17T01:12:16.400Z,97524.47
2022-11-17T01:14:42.723Z,97531.88
2022-11-17T01:17:09.099Z,97531.25
2022-11-17T01:19:35.366Z,97532.47
2022-11-17T01:22:01.661Z,97539.50
2022-11-17T01:24:28.188Z,97544.03
2022-11-17T01:26:55.779Z,97550.38
2022-11-17T01:29:22.131Z,97547.31
2022-11-17T01:31:49.937Z,97557.59
2022-11-17T01:34:16.240Z,97556.00
2022-11-17T01:36:43.430Z,97559.44
2022-11-17T01:39:09.753Z,97560.91
2022-11-17T01:41:36.126Z,97562.31
2022-11-17T01:44:17.321Z,97568.50
2022-11-17T01:46:44.937Z,97568.50
2022-11-17T01:49:13.069Z,97570.38
2022-11-17T01:51:41.531Z,97583.53
2022-11-17T01:54:09.503Z,97582.50
2022-11-17T01:56:39.152Z,97594.63
2022-11-17T01:59:06.827Z,97592.34
2022-11-17T02:01:33.297Z,97588.03
2022-11-17T02:04:00.968Z,97592.56
2022-11-17T02:06:29.974Z,97590.69
2022-11-17T02:08:56.432Z,97598.72
2022-11-17T02:11:22.870Z,97592.72
2022-11-17T02:13:51.789Z,97598.72
2022-11-17T02:16:18.132Z,97605.50
2022-11-17T02:18:45.953Z,97606.31
2022-11-17T02:21:22.133Z,97614.34
2022-11-17T02:24:03.293Z,97616.00
2022-11-17T02:26:40.586Z,97617.25
2022-11-17T02:29:12.546Z,97623.41
2022-11-17T02:31:43.928Z,97618.22
2022-11-17T02:34:16.787Z,97621.94
2022-11-17T02:36:46.303Z,97626.25
2022-11-17T02:39:18.068Z,97626.47
2022-11-17T02:41:49.309Z,97628.31
2022-11-17T02:44:22.330Z,97633.69
2022-11-17T02:46:51.471Z,97633.69
2022-11-17T02:49:19.703Z,97639.03
2022-11-17T02:51:48.084Z,97641.72
2022-11-17T02:54:14.609Z,97643.56
2022-11-17T02:56:41.323Z,97649.09
2022-11-17T02:59:07.926Z,97654.44
2022-11-17T03:01:44.245Z,97662.47
2022-11-17T03:04:22.129Z,97658.78
2022-11-17T03:06:51.624Z,97670.34
2022-11-17T03:09:21.991Z,97678.16
2022-11-17T03:11:50.013Z,97690.06
2022-11-17T03:14:20.125Z,97680.19
2022-11-17T03:16:51.310Z,97688.41
2022-11-17T03:19:21.785Z,97690.28
2022-11-17T03:21:51.653Z,97693.78
2022-11-17T03:24:21.082Z,97700.78
2022-11-17T03:26:50.471Z,97705.31
2022-11-17T03:29:19.057Z,97707.16
2022-11-17T03:31:47.231Z,97713.53
2022-11-17T03:34:15.483Z,97711.69
2022-11-17T03:36:46.815Z,97705.97
2022-11-17T03:39:16.821Z,97707.84
2022-11-17T03:41:45.774Z,97709.16
2022-11-17T03:44:13.699Z,97712.88
2022-11-17T03:46:42.500Z,97712.34
2022-11-17T03:49:13.657Z,97720.81
2022-11-17T03:51:40.158Z,97720.03
2022-11-17T03:54:07.963Z,97715.09
2022-11-17T03:56:38.078Z,97725.06
2022-11-17T03:59:09.985Z,97725.88
2022-11-17T04:01:36.653Z,97730.03
2022-11-17T04:04:03.042Z,97738.69
2022-11-17T04:06:29.296Z,97743.28
2022-11-17T04:08:55.662Z,97737.91
2022-11-17T04:11:23.268Z,97750.94
2022-11-17T04:13:49.590Z,97751.63
2022-11-17T04:16:15.885Z,97751.41
2022-11-17T04:18:42.176Z,97752.06
2022-11-17T04:21:08.580Z,97753.50
2022-11-17T04:23:35.182Z,97754.78
2022-11-17T04:26:01.677Z,97751.09
2022-11-17T04:28:30.378Z,97747.81
2022-11-17T04:30:56.672Z,97760.38
2022-11-17T04:33:22.991Z,97756.69
2022-11-17T04:35:49.658Z,97757.31
2022-11-17T04:38:15.946Z,97765.16
2022-11-17T04:40:42.381Z,97763.34
2022-11-17T04:43:08.642Z,97773.63
2022-11-17T04:45:36.211Z,97767.06
2022-11-17T04:48:02.563Z,97770.56
2022-11-17T04:50:28.807Z,97760.50
2022-11-17T04:52:55.223Z,97776.38
2022-11-17T04:55:21.505Z,97780.72
2022-11-17T04:57:47.798Z,97780.53
2022-11-17T05:00:14.622Z,97765.91
2022-11-17T05:02:42.215Z,97770.25
2022-11-17T05:05:08.682Z,97778.06
2022-11-17T05:07:35.091Z,97769.03
2022-11-17T05:10:01.430Z,97771.50
2022-11-17T05:12:27.823Z,97782.88
2022-11-17T05:14:54.191Z,97782.88
2022-11-17T05:17:20.548Z,97787.00
2022-11-17T05:19:48.531Z,97777.94
2022-11-17T05:22:16.274Z,97786.00
2022-11-17T05:24:42.647Z,97790.13
2022-11-17T05:27:08.934Z,97799.84
2022-11-17T05:29:35.215Z,97804.16
2022-11-17T05:32:01.539Z,97800.28
2022-11-17T05:34:27.814Z,97807.28
2022-11-17T05:36:55.432Z,97798.41
2022-11-17T05:39:21.720Z,97805.31
2022-11-17T05:41:48.002Z,97811.03
2022-11-17T05:44:14.425Z,97812.00
2022-11-17T05:46:40.708Z,97814.63
2022-11-17T05:49:07.024Z,97830.50
2022-11-17T05:51:33.314Z,97829.25
2022-11-17T05:54:00.947Z,97825.09
2022-11-17T05:56:32.303Z,97821.97
2022-11-17T05:59:01.185Z,97826.50
2022-11-17T06:01:27.951Z,97830.22
2022-11-17T06:03:56.063Z,97838.41
2022-11-17T06:06:22.555Z,97836.56
2022-11-17T06:08:49.242Z,97831.84
2022-11-17T06:11:16.853Z,97829.19
2022-11-17T06:13:43.086Z,97829.19
2022-11-17T06:16:11.873Z,97825.69
2022-11-17T06:18:40.495Z,97829.63
2022-11-17T06:21:08.106Z,97827.38
2022-11-17T06:23:35.506Z,97826.69
2022-11-17T06:26:04.046Z,97824.69
2022-11-17T06:28:32.596Z,97827.81
2022-11-17T06:30:59.361Z,97827.63
2022-11-17T06:33:27.663Z,97828.25
2022-11-17T06:35:54.081Z,97831.56
2022-11-17T06:38:20.438Z,97823.31
2022-11-17T06:40:46.740Z,97821.28
2022-11-17T06:43:13.185Z,97822.94
2022-11-17T06:45:42.437Z,97825.44
2022-11-17T06:48:09.390Z,97824.41
2022-11-17T06:50:35.735Z,97830.38
2022-11-17T06:53:03.135Z,97840.09
2022-11-17T06:55:29.771Z,97822.16
2022-11-17T06:57:59.671Z,97831.69
2022-11-17T07:00:26.209Z,97832.50
2022-11-17T07:02:58.415Z,97835.78
2022-11-17T07:05:24.887Z,97834.97
2022-11-17T07:07:51.207Z,97833.94
2022-11-17T07:10:17.776Z,97838.31
2022-11-17T07:12:45.433Z,97845.31
2022-11-17T07:15:11.840Z,97849.47
2022-11-17T07:17:38.181Z,97844.88
2022-11-17T07:20:06.215Z,97851.84
2022-11-17T07:22:32.618Z,97853.47
2022-11-17T07:24:58.932Z,97850.13
2022-11-17T07:27:25.262Z,97856.47
2022-11-17T07:29:51.593Z,97861.19
2022-11-17T07:32:18.068Z,97859.91
2022-11-17T07:34:44.420Z,97855.38
2022-11-17T07:37:12.104Z,97853.56
2022-11-17T07:39:38.463Z,97857.06
2022-11-17T07:42:04.966Z,97868.66
2022-11-17T07:44:31.353Z,97868.84
2022-11-17T07:46:58.212Z,97869.28
2022-11-17T07:49:26.316Z,97879.44
2022-11-17T07:51:52.677Z,97886.91
2022-11-17T07:54:20.482Z,97884.91
2022-11-17T07:56:46.797Z,97890.91
2022-11-17T07:59:17.176Z,97891.34
2022-11-17T08:01:46.437Z,97893.22
2022-11-17T08:04:12.930Z,97892.19
2022-11-17T08:06:39.215Z,97905.75
2022-11-17T08:09:05.587Z,97909.91
2022-11-17T08:11:34.227Z,97906.69
2022-11-17T08:14:00.750Z,97907.34
2022-11-17T08:16:27.085Z,97909.13
2022-11-17T08:18:53.522Z,97910.84
2022-11-17T08:21:19.939Z,97914.22
2022-11-17T08:23:49.430Z,97913.84
2022-11-17T08:26:15.777Z,97918.84
2022-11-17T08:28:43.441Z,97913.91
2022-11-17T08:31:09.796Z,97916.81
2022-11-17T08:33:36.094Z,97924.25
2022-11-17T08:36:03.682Z,97916.63
2022-11-17T08:38:30.182Z,97911.09
2022-11-17T08:40:57.036Z,97921.63
2022-11-17T08:43:23.511Z,97910.47
2022-11-17T08:45:51.254Z,97920.63
2022-11-17T08:48:17.584Z,97940.44
2022-11-17T08:50:44.002Z,97928.81
2022-11-17T08:53:12.985Z,97937.03
2022-11-17T08:55:41.153Z,97943.56
2022-11-17T08:58:07.919Z,97949.16
2022-11-17T09:00:34.293Z,97947.50
2022-11-17T09:03:04.613Z,97952.22
2022-11-17T09:05:31.569Z,97954.69
2022-11-17T09:08:15.904Z,97959.97
2022-11-17T09:10:45.269Z,97956.91
2022-11-17T09:13:17.398Z,97965.22
2022-11-17T09:15:44.918Z,97977.03
2022-11-17T09:18:12.632Z,97958.69
2022-11-17T09:20:42.824Z,97971.50
2022-11-17T09:23:11.986Z,97969.44
2022-11-17T09:25:38.318Z,97966.16
2022-11-17T09:28:04.754Z,97962.44
2022-11-17T09:30:31.102Z,97960.25
2022-11-17T09:32:57.782Z,97963.13
2022-11-17T09:35:25.408Z,97971.81
2022-11-17T09:37:51.720Z,97970.41
2022-11-17T09:40:19.732Z,97973.88
2022-11-17T09:42:46.965Z,97974.78
2022-11-17T09:45:16.397Z,97978.69
2022-11-17T09:47:46.001Z,97980.56
2022-11-17T09:50:17.504Z,97983.00
2022-11-17T09:52:49.229Z,97987.75
2022-11-17T09:55:22.467Z,97991.44
2022-11-17T09:57:51.908Z,97994.13
2022-11-17T10:00:19.018Z,97992.38
2022-11-17T10:02:45.906Z,97993.44
2022-11-17T10:05:13.307Z,97991.88
2022-11-17T10:07:44.150Z,97992.47
2022-11-17T10:10:16.318Z,98010.63
2022-11-17T10:12:47.551Z,98004.19
2022-11-17T10:15:20.404Z,98015.03
2022-11-17T10:17:46.830Z,98015.06
2022-11-17T10:20:14.767Z,98017.75
2022-11-17T10:22:41.628Z,98015.72
2022-11-17T10:25:20.246Z,98019.56
2022-11-17T10:27:51.819Z,98025.03
2022-11-17T10:30:21.199Z,98015.91
2022-11-17T10:32:49.039Z,98017.47
2022-11-17T10:35:16.551Z,98030.63
2022-11-17T10:37:44.187Z,98025.16
2022-11-17T10:40:24.695Z,98023.81
2022-11-17T10:43:01.502Z,98027.53
2022-11-17T10:45:29.526Z,98020.31
2022-11-17T10:48:07.978Z,98033.09
2022-11-17T10:50:34.702Z,98029.84
2022-11-17T10:53:12.582Z,98025.03
2022-11-17T10:55:39.450Z,98023.63
2022-11-17T10:58:19.253Z,98024.75
2022-11-17T11:00:51.901Z,98029.63
2022-11-17T11:03:19.706Z,98023.94
2022-11-17T11:05:55.223Z,98031.38
2022-11-17T11:08:23.269Z,98024.78
2022-11-17T11:10:50.982Z,98033.47
2022-11-17T11:13:21.298Z,98027.28
2022-11-17T11:15:49.122Z,98027.47
2022-11-17T11:18:16.776Z,98032.53
2022-11-17T11:20:47.289Z,98020.25
2022-11-17T11:23:17.952Z,98020.47
2022-11-17T11:25:48.698Z,98019.81
2022-11-17T11:28:23.924Z,98016.69
2022-11-17T11:30:59.009Z,98010.59
2022-11-17T11:33:30.953Z,98021.78
2022-11-17T11:36:04.488Z,98010.44
2022-11-17T11:38:37.839Z,98015.63
2022-11-17T11:41:14.621Z,98008.09
2022-11-17T11:43:49.331Z,98011.94
2022-11-17T11:46:18.457Z,98004.31
2022-11-17T11:48:46.299Z,97999.66
2022-11-17T11:51:14.682Z,97999.19
2022-11-17T11:53:44.391Z,97996.34
2022-11-17T11:56:15.964Z,97994.41
2022-11-17T11:58:45.201Z,97995.91
2022-11-17T12:01:12.594Z,98003.09
2022-11-17T12:03:46.309Z,98004.03
2022-11-17T12:06:16.694Z,98001.31
2022-11-17T12:08:48.386Z,98000.31
2022-11-17T12:11:16.153Z,98008.59
2022-11-17T12:13:48.396Z,97999.44
2022-11-17T12:16:18.053Z,98003.38
2022-11-17T12:18:45.754Z,98001.91
2022-11-17T12:21:12.545Z,97992.78
2022-11-17T12:23:49.203Z,97991.13
2022-11-17T12:26:25.136Z,97998.53
2022-11-17T12:29:06.312Z,98004.53
2022-11-17T12:31:42.391Z,97998.13
2022-11-17T12:34:15.817Z,98010.13
2022-11-17T12:36:42.206Z,98011.72
2022-11-17T12:39:28.751Z,98019.56
2022-11-17T12:42:04.994Z,98012.53
2022-11-17T12:44:41.170Z,98022.84
2022-11-17T12:47:10.589Z,98026.66
2022-11-17T12:49:45.705Z,98025.09
2022-11-17T12:52:16.705Z,98017.09
2022-11-17T12:54:47.742Z,98016.88
2022-11-17T12:57:17.125Z,98018.59
2022-11-17T12:59:53.371Z,98015.69
2022-11-17T13:02:26.503Z,98014.50
2022-11-17T13:04:57.518Z,98015.09
2022-11-17T13:07:24.821Z,98008.72
2022-11-17T13:09:51.751Z,98014.53
2022-11-17T13:12:21.848Z,98012.31
2022-11-17T13:14:52.714Z,98020.81
2022-11-17T13:17:27.184Z,98020.97
2022-11-17T13:20:03.366Z,98002.16
2022-11-17T13:22:29.751Z,98013.34
2022-11-17T13:24:56.123Z,98015.44
2022-11-17T13:27:23.591Z,98020.59
2022-11-17T13:29:49.973Z,98024.81
2022-11-17T13:32:17.554Z,98025.53
2022-11-17T13:34:45.636Z,98020.53
2022-11-17T13:37:15.967Z,98022.72
2022-11-17T13:39:52.990Z,98015.91
2022-11-17T13:42:19.382Z,98021.47
2022-11-17T13:44:45.857Z,98019.44
2022-11-17T13:47:20.974Z,98023.00
2022-11-17T13:49:47.563Z,98022.63
2022-11-17T13:52:35.228Z,98020.53
2022-11-17T13:55:06.763Z,98028.59
2022-11-17T13:57:33.331Z,98015.38
2022-11-17T14:00:00.667Z,98013.53
2022-11-17T14:02:27.412Z,98025.91
2022-11-17T14:05:03.585Z,98019.53
2022-11-17T14:07:32.734Z,98022.41
2022-11-17T14:10:12.528Z,98029.41
2022-11-17T14:12:39.697Z,98023.66
2022-11-17T14:15:13.258Z,98040.22
2022-11-17T14:17:39.644Z,98033.41
2022-11-17T14:20:16.078Z,98030.28
2022-11-17T14:22:58.608Z,98040.13
2022-11-17T14:25:25.058Z,98044.84
2022-11-17T14:27:53.327Z,98041.50
2022-11-17T14:30:19.838Z,98036.41
2022-11-17T14:32:46.251Z,98046.78
2022-11-17T14:35:13.539Z,98038.19
2022-11-17T14:37:39.899Z,98029.34
2022-11-17T14:40:08.882Z,98031.09
2022-11-17T14:42:36.352Z,98022.63
2022-11-17T14:45:03.012Z,98022.78
2022-11-17T14:47:29.317Z,98032.31
2022-11-17T14:49:55.683Z,98030.84
2022-11-17T14:52:22.250Z,98033.53
2022-11-17T14:54:48.663Z,98041.78
2022-11-17T14:57:16.333Z,98040.13
2022-11-17T14:59:42.813Z,98036.41
2022-11-17T15:02:09.399Z,98046.78
2022-11-17T15:04:50.090Z,98036.84
2022-11-17T15:07:17.853Z,98039.53
2022-11-17T15:09:44.204Z,98048.41
2022-11-17T15:12:10.531Z,98041.47
2022-11-17T15:14:38.116Z,98034.19
2022-11-17T15:17:05.733Z,98047.53
2022-11-17T15:19:33.951Z,98053.56
2022-11-17T15:22:00.263Z,98048.56
2022-11-17T15:24:26.726Z,98058.28
2022-11-17T15:26:53.017Z,98051.63
2022-11-17T15:29:19.443Z,98061.28
2022-11-17T15:31:47.561Z,98062.69
2022-11-17T15:34:18.746Z,98065.81
2022-11-17T15:36:46.835Z,98062.53
2022-11-17T15:39:13.534Z,98066.91
2022-11-17T15:41:40.130Z,98069.59
2022-11-17T15:44:06.427Z,98074.38
2022-11-17T15:46:32.755Z,98066.97
2022-11-17T15:49:00.634Z,98069.66
2022-11-17T15:51:27.455Z,98066.13
2022-11-17T15:53:56.557Z,98074.38
2022-11-17T15:56:24.286Z,98079.34
2022-11-17T15:58:54.253Z,98081.00
2022-11-17T16:01:26.165Z,98078.16
2022-11-17T16:03:53.106Z,98070.94
2022-11-17T16:06:20.799Z,98077.94
2022-11-17T16:08:47.308Z,98074.88
2022-11-17T16:11:13.684Z,98071.66
2022-11-17T16:13:40.025Z,98081.03
2022-11-17T16:16:07.011Z,98083.78
2022-11-17T16:18:33.690Z,98090.19
2022-11-17T16:21:04.567Z,98090.28
2022-11-17T16:23:36.768Z,98075.91
2022-11-17T16:26:03.137Z,98082.03
2022-11-17T16:28:29.564Z,98084.28
2022-11-17T16:30:55.883Z,98113.97
2022-11-17T16:33:22.270Z,98128.81
2022-11-17T16:35:48.658Z,98156.84
2022-11-17T16:38:15.880Z,98138.47
2022-11-17T16:40:43.884Z,98144.38
2022-11-17T16:43:10.821Z,98147.81
2022-11-17T16:45:41.077Z,98144.59
2022-11-17T16:48:07.384Z,98147.38
2022-11-17T16:50:35.589Z,98145.94
2022-11-17T16:53:01.879Z,98144.91
2022-11-17T16:55:28.253Z,98135.66
2022-11-17T16:57:55.802Z,98135.66
2022-11-17T17:00:22.302Z,98139.81
2022-11-17T17:02:48.976Z,98147.28
2022-11-17T17:05:15.650Z,98162.78
2022-11-17T17:07:42.044Z,98163.22
2022-11-17T17:10:08.588Z,98167.75
2022-11-17T17:12:35.023Z,98183.69
2022-11-17T17:15:02.654Z,98182.03
2022-11-17T17:17:28.959Z,98184.72
2022-11-17T17:19:55.357Z,98166.53
2022-11-17T17:22:21.684Z,98162.00
2022-11-17T17:24:48.021Z,98168.19
2022-11-17T17:27:14.344Z,98173.38
2022-11-17T17:29:40.649Z,98165.00
2022-11-17T17:32:08.339Z,98168.97
2022-11-17T17:34:34.670Z,98168.25
2022-11-17T17:37:00.968Z,98168.81
2022-11-17T17:39:27.367Z,98177.41
2022-11-17T17:41:53.698Z,98175.66
2022-11-17T17:44:20.139Z,98187.03
2022-11-17T17:46:46.665Z,98193.81
2022-11-17T17:49:14.654Z,98186.44
2022-11-17T17:51:41.939Z,98185.25
2022-11-17T17:54:12.666Z,98191.28
2022-11-17T17:56:38.976Z,98192.94
2022-11-17T17:59:05.282Z,98199.13
2022-11-17T18:01:31.785Z,98211.34
2022-11-17T18:03:58.989Z,98199.78
2022-11-17T18:06:26.983Z,98204.13
2022-11-17T18:08:53.302Z,98201.22
2022-11-17T18:11:20.276Z,98201.44
2022-11-17T18:13:47.375Z,98200.22
2022-11-17T18:16:14.997Z,98203.75
2022-11-17T18:18:41.665Z,98207.25
2022-11-17T18:21:08.958Z,98225.84
2022-11-17T18:23:36.992Z,98231.22
2022-11-17T18:26:11.440Z,98229.19
2022-11-17T18:28:38.555Z,98243.25
2022-11-17T18:31:05.974Z,98235.13
2022-11-17T18:33:32.571Z,98239.69
2022-11-17T18:36:02.594Z,98241.19
2022-11-17T18:38:28.870Z,98237.38
2022-11-17T18:41:02.560Z,98246.81
2022-11-17T18:43:29.333Z,98260.59
2022-11-17T18:45:59.984Z,98254.41
2022-11-17T18:48:26.461Z,98255.31
2022-11-17T18:51:18.203Z,98260.81
2022-11-17T18:53:39.452Z,98267.28
2022-11-17T18:56:08.120Z,98272.66
2022-11-17T18:58:34.660Z,98279.47
2022-11-17T19:01:05.189Z,98280.31
2022-11-17T19:03:31.517Z,98273.75
2022-11-17T19:05:57.854Z,98279.09
2022-11-17T19:08:24.384Z,98282.63
2022-11-17T19:10:51.384Z,98282.44
2022-11-17T19:13:18.939Z,98277.91
2022-11-17T19:15:45.290Z,98273.38
2022-11-17T19:18:11.655Z,98279.41
2022-11-17T19:20:37.937Z,98277.53
2022-11-17T19:23:04.316Z,98281.06
2022-11-17T19:25:30.715Z,98285.38
2022-11-17T19:27:57.031Z,98283.41
2022-11-17T19:30:24.687Z,98288.53
2022-11-17T19:32:51.005Z,98296.50
2022-11-17T19:35:22.520Z,98298.88
2022-11-17T19:37:49.262Z,98302.78
2022-11-17T19:40:16.074Z,98306.19
2022-11-17T19:42:42.500Z,98312.31
2022-11-17T19:45:08.997Z,98301.41
2022-11-17T19:47:36.628Z,98305.72
2022-11-17T19:50:03.036Z,98310.97
2022-11-17T19:52:29.474Z,98315.13
2022-11-17T19:54:55.773Z,98321.13
2022-11-17T19:57:22.063Z,98326.31
2022-11-17T19:59:48.389Z,98341.41
2022-11-17T20:02:14.684Z,98349.47
2022-11-17T20:04:42.304Z,98352.97
2022-11-17T20:07:09.206Z,98348.25
2022-11-17T20:09:35.661Z,98364.38
2022-11-17T20:12:02.401Z,98378.41
2022-11-17T20:14:29.479Z,98373.03
2022-11-17T20:16:55.876Z,98381.94
2022-11-17T20:19:22.277Z,98383.63
2022-11-17T20:21:49.903Z,98389.25
2022-11-17T20:24:16.217Z,98383.00
2022-11-17T20:26:42.562Z,98390.97
2022-11-17T20:29:09.138Z,98390.84
2022-11-17T20:31:36.075Z,98393.22
2022-11-17T20:34:04.296Z,98404.44
2022-11-17T20:36:31.766Z,98402.53
2022-11-17T20:39:00.208Z,98403.00
2022-11-17T20:41:26.828Z,98407.78
2022-11-17T20:43:54.016Z,98409.44
2022-11-17T20:46:20.683Z,98418.16
2022-11-17T20:48:47.280Z,98427.72
2022-11-17T20:51:14.805Z,98427.50
2022-11-17T20:53:41.186Z,98427.50
2022-11-17T20:56:09.659Z,98435.44
2022-11-17T20:58:36.252Z,98439.78
2022-11-17T21:01:07.396Z,98442.91
2022-11-17T21:03:34.147Z,98449.31
2022-11-17T21:06:01.661Z,98451.13
2022-11-17T21:08:29.599Z,98453.66
2022-11-17T21:10:56.342Z,98459.84
2022-11-17T21:13:24.812Z,98464.19
2022-11-17T21:16:01.726Z,98472.09
2022-11-17T21:18:28.234Z,98465.88
2022-11-17T21:20:55.816Z,98471.88
2022-11-17T21:23:22.251Z,98478.91
2022-11-17T21:25:48.612Z,98480.72
2022-11-17T21:28:14.940Z,98478.47
2022-11-17T21:30:42.507Z,98485.56
2022-11-17T21:33:08.790Z,98480.75
2022-11-17T21:35:35.121Z,98479.41
2022-11-17T21:38:01.567Z,98494.03
2022-11-17T21:40:27.875Z,98506.34
2022-11-17T21:42:54.184Z,98502.97
2022-11-17T21:45:20.489Z,98507.78
2022-11-17T21:47:48.232Z,98517.34
2022-11-17T21:50:14.725Z,98521.66
2022-11-17T21:52:41.048Z,98524.19
2022-11-17T21:55:07.864Z,98530.03
2022-11-17T21:57:34.121Z,98535.41
2022-11-17T22:00:00.439Z,98538.72
2022-11-17T22:02:26.780Z,98545.31
2022-11-17T22:04:54.368Z,98542.25
2022-11-17T22:07:20.665Z,98545.78
2022-11-17T22:09:47.077Z,98551.47
2022-11-17T22:12:13.392Z,98553.31
2022-11-17T22:14:39.743Z,98552.59
2022-11-17T22:17:06.095Z,98561.38
2022-11-17T22:19:32.633Z,98553.34
2022-11-17T22:22:00.461Z,98558.81
2022-11-17T22:24:26.847Z,98572.31
2022-11-17T22:26:53.164Z,98564.75
2022-11-17T22:29:20.637Z,98584.03
2022-11-17T22:31:47.703Z,98574.09
2022-11-17T22:34:14.133Z,98579.09
2022-11-17T22:36:40.462Z,98585.78
2022-11-17T22:39:08.090Z,98591.63
2022-11-17T22:41:34.463Z,98604.03
2022-11-17T22:44:00.788Z,98600.34
2022-11-17T22:46:27.914Z,98609.03
2022-11-17T22:48:54.288Z,98615.22
2022-11-17T22:51:20.687Z,98616.06
2022-11-17T22:53:47.153Z,98616.06
2022-11-17T22:56:14.961Z,98623.13
2022-11-17T22:58:42.725Z,98619.22
2022-11-17T23:01:11.699Z,98623.94
2022-11-17T23:03:38.153Z,98630.81
2022-11-17T23:06:04.825Z,98624.59
2022-11-17T23:08:31.330Z,98637.66
2022-11-17T23:11:29.755Z,98638.16
2022-11-17T23:13:48.509Z,98641.03
2022-11-17T23:16:15.115Z,98640.94
2022-11-17T23:18:41.462Z,98641.69
2022-11-17T23:21:08.813Z,98648.78
2022-11-17T23:23:35.976Z,98650.97
2022-11-17T23:26:02.903Z,98655.59
2022-11-17T23:28:29.264Z,98655.75
2022-11-17T23:30:58.968Z,98660.41
2022-11-17T23:33:25.525Z,98664.59
2022-11-17T23:35:56.026Z,98674.47
2022-11-17T23:38:22.336Z,98672.47
2022-11-17T23:40:48.729Z,98683.00
2022-11-17T23:43:15.083Z,98681.00
2022-11-17T23:45:41.419Z,98684.50
2022-11-17T23:48:08.961Z,98689.53
2022-11-17T23:50:36.745Z,98690.56
2022-11-17T23:53:03.093Z,98693.03
2022-11-17T23:55:29.534Z,98700.09
2022-11-17T23:57:55.992Z,98696.22
